MOL Commitment — V7AZ4 — position and weather

sailwx.info

Track history (hours):
 
Tides and Currents Weather Stations Pressure Air Temp Water Temp Dewpoint Dewpoint Depression Visibility Wind Speed Wind Dir Waves Ship Positions

MOL Commitment

Last reported at 2017-Nov-20 00:26 UTC. Time now 2017-Nov-21 23:13 UTC.
Position N 22°23' E 113°54'.

Length 316 m; draft 8 m.

Type: Ship (hazmat cat A). MMSI: 538005100.

Date/timePositionNaut miles runAvg speedWind from/ knotsBaromVisibWave heightAir tempDewpointWater temp
2017-Nov-20 00:26N 22°23' E 113°54'2 4.6
2017-Nov-20 00:01N 22°22' E 113°55'612.9
2017-Nov-19 23:30N 22°21' E 114°02'5 9.7
2017-Nov-19 23:00N 22°20' E 114°07'1 0.1
2017-Nov-19 15:25N 22°20' E 114°07'0 0.0
2017-Nov-19 13:52N 22°20' E 114°07'1 0.2
2017-Nov-19 09:36N 22°20' E 114°07'2 5.7
2017-Nov-19 09:16N 22°18' E 114°06'310.6
2017-Nov-19 08:58N 22°16' E 114°07'5 8.7
2017-Nov-19 08:27N 22°12' E 114°11'4 9.0
2017-Nov-19 08:01N 22°09' E 114°13'510.2
2017-Nov-19 07:30N 22°08' E 114°19'510.9
2017-Nov-19 07:00N 22°08' E 114°25'511.0
2017-Nov-19 06:30N 22°07' E 114°31'5 9.3
2017-Nov-19 06:00N 22°06' E 114°35'1 2.4
2017-Nov-19 05:30N 22°07' E 114°37'1 2.5
2017-Nov-19 05:00N 22°07' E 114°38'1 2.5
2017-Nov-19 04:30N 22°08' E 114°39'1 2.5
2017-Nov-19 04:00N 22°09' E 114°40'1 2.7
2017-Nov-19 03:30N 22°10' E 114°41'1 2.6
2017-Nov-19 03:00N 22°10' E 114°42'1 2.7
2017-Nov-19 02:30N 22°11' E 114°43'2 3.8
2017-Nov-19 02:00N 22°11' E 114°46'612.6
2017-Nov-19 01:30N 22°13' E 114°52'612.6
2017-Nov-19 01:00N 22°12' E 114°59'612.7
2017-Nov-19 00:30N 22°12' E 115°06'713.1
2017-Nov-19 00:00N 22°12' E 115°13'1212.2
2017-Nov-18 23:00N 22°13' E 115°26'24514.2
2017-Nov-18 05:47N 22°26' E 119°50'518.0
2017-Nov-18 05:30N 22°28' E 119°56'918.1
2017-Nov-18 04:59N 22°31' E 120°05'817.6
2017-Nov-18 04:30N 22°33' E 120°14'5 0.8
2017-Nov-17 22:53N 22°33' E 120°19'3 7.3
2017-Nov-17 22:30N 22°33' E 120°16'4 7.4
2017-Nov-17 22:00N 22°32' E 120°12'613.0
2017-Nov-17 21:30N 22°37' E 120°08'815.9
2017-Nov-17 21:00N 22°43' E 120°02'815.6
2017-Nov-17 20:30N 22°50' E 119°59'816.1
2017-Nov-17 20:00N 22°58' E 119°56'  
2017-Nov-13 01:55N 35°36' E 139°47'0 0.1
2017-Nov-13 01:25N 35°36' E 139°47'0 0.1
2017-Nov-13 00:55N 35°36' E 139°47'0 0.1
2017-Nov-13 00:25N 35°36' E 139°47'0 0.0
2017-Nov-12 23:55N 35°36' E 139°47'0 0.0
2017-Nov-12 22:43N 35°36' E 139°47'1 2.5
2017-Nov-12 22:30N 35°36' E 139°47'4 7.8
2017-Nov-12 22:00N 35°33' E 139°51'5 9.2
2017-Nov-12 21:30N 35°28' E 139°51'612.6
2017-Nov-12 21:01N 35°25' E 139°45'3 6.7
2017-Nov-12 20:30N 35°24' E 139°41'0 0.1
2017-Nov-12 20:01N 35°24' E 139°41'0 0.0
2017-Nov-12 19:31N 35°24' E 139°41'0 0.0
2017-Nov-12 18:55N 35°24' E 139°41'0 0.0
2017-Nov-12 18:28N 35°24' E 139°41'0 0.0
2017-Nov-12 17:58N 35°24' E 139°41'0 0.0
2017-Nov-12 17:28N 35°24' E 139°41'0 0.0
2017-Nov-12 17:01N 35°24' E 139°41'0 0.0
2017-Nov-12 16:31N 35°24' E 139°41'0 0.1
2017-Nov-12 15:59N 35°24' E 139°41'3 6.3
2017-Nov-12 15:30N 35°22' E 139°43'612.0
2017-Nov-12 15:00N 35°16' E 139°46'611.7
2017-Nov-12 14:30N 35°10' E 139°46'5 9.5
2017-Nov-12 14:00N 35°06' E 139°44'5 9.5
2017-Nov-12 13:30N 35°03' E 139°39'5 9.5
2017-Nov-12 13:00N 35°00' E 139°35'5 9.6
2017-Nov-12 12:30N 34°57' E 139°30'5 9.9
2017-Nov-12 12:00N 34°54' E 139°25'227 5.8
2017-Nov-10 21:02N 33°55' E 134°60'119.3
2017-Nov-10 21:00N 33°56' E 134°60'919.1
2017-Nov-10 20:30N 34°05' E 134°60'917.2
2017-Nov-10 20:00N 34°14' E 134°58'612.1
2017-Nov-10 19:30N 34°20' E 134°59'816.7
2017-Nov-10 19:00N 34°26' E 135°06'917.4
2017-Nov-10 18:30N 34°32' E 135°13'714.2
2017-Nov-10 18:00N 34°39' E 135°16'2 3.4
2017-Nov-10 17:30N 34°40' E 135°14'0 0.0
2017-Nov-10 16:56N 34°40' E 135°14'0 0.0
2017-Nov-10 16:08N 34°40' E 135°14'0 0.0
2017-Nov-10 15:50N 34°40' E 135°14'0 0.0
2017-Nov-10 15:26N 34°40' E 135°14'0 0.0
2017-Nov-10 14:50N 34°40' E 135°14'0 0.0
2017-Nov-10 14:20N 34°40' E 135°14'0 0.0
2017-Nov-10 13:56N 34°40' E 135°14'0 0.0
2017-Nov-10 13:20N 34°40' E 135°14'0 0.0
2017-Nov-10 12:56N 34°40' E 135°14'0 0.0
2017-Nov-10 12:26N 34°40' E 135°14'0 0.0
2017-Nov-10 11:56N 34°40' E 135°14'0 0.0
2017-Nov-10 11:20N 34°40' E 135°14'0 1.3
2017-Nov-10 11:00N 34°40' E 135°15'5 9.5
2017-Nov-10 10:30N 34°38' E 135°20'3 5.1
2017-Nov-10 09:54N 34°39' E 135°24'0 0.0
2017-Nov-10 09:30N 34°39' E 135°24'0 0.0
2017-Nov-10 09:00N 34°39' E 135°24'0 0.0
2017-Nov-10 08:30N 34°39' E 135°24'0 0.0
2017-Nov-10 08:00N 34°39' E 135°24'0 0.0
2017-Nov-10 07:30N 34°39' E 135°24'0 0.0
2017-Nov-10 07:00N 34°39' E 135°24'0 0.0
2017-Nov-10 06:30N 34°39' E 135°24'0 0.0
2017-Nov-10 06:00N 34°39' E 135°24'0 0.0
2017-Nov-10 05:30N 34°39' E 135°24'0 0.0
2017-Nov-10 04:48N 34°39' E 135°24'0 0.0
2017-Nov-10 04:24N 34°39' E 135°24'0 0.0
2017-Nov-10 04:00N 34°39' E 135°24'0 0.0
2017-Nov-10 03:30N 34°39' E 135°24'0 0.0
2017-Nov-10 03:00N 34°39' E 135°24'0 0.0
2017-Nov-10 02:30N 34°39' E 135°24'0 0.0
2017-Nov-10 01:42N 34°39' E 135°24'0 0.3
2017-Nov-10 01:18N 34°39' E 135°24'2 5.1
2017-Nov-10 01:00N 34°38' E 135°23'611.9
2017-Nov-10 00:31N 34°34' E 135°17'  
Track history (hours):
 
Tides and Currents Weather Stations Pressure Air Temp Water Temp Dewpoint Dewpoint Depression Visibility Wind Speed Wind Dir Waves Ship Positions

MOL Commitment

Last reported at 2017-Nov-20 00:26 UTC. Time now 2017-Nov-21 23:13 UTC.
Position N 22°23' E 113°54'.

Length 316 m; draft 8 m.

Type: Ship (hazmat cat A). MMSI: 538005100.

Date/timePositionNaut miles runAvg speedWind from/ knotsBaromVisibWave heightAir tempDewpointWater temp
2017-Nov-20 00:26N 22°23' E 113°54'2 4.6
2017-Nov-20 00:01N 22°22' E 113°55'612.9
2017-Nov-19 23:30N 22°21' E 114°02'5 9.7
2017-Nov-19 23:00N 22°20' E 114°07'1 0.1
2017-Nov-19 15:25N 22°20' E 114°07'0 0.0
2017-Nov-19 13:52N 22°20' E 114°07'1 0.2
2017-Nov-19 09:36N 22°20' E 114°07'2 5.7
2017-Nov-19 09:16N 22°18' E 114°06'310.6
2017-Nov-19 08:58N 22°16' E 114°07'5 8.7
2017-Nov-19 08:27N 22°12' E 114°11'4 9.0
2017-Nov-19 08:01N 22°09' E 114°13'510.2
2017-Nov-19 07:30N 22°08' E 114°19'510.9
2017-Nov-19 07:00N 22°08' E 114°25'511.0
2017-Nov-19 06:30N 22°07' E 114°31'5 9.3
2017-Nov-19 06:00N 22°06' E 114°35'1 2.4
2017-Nov-19 05:30N 22°07' E 114°37'1 2.5
2017-Nov-19 05:00N 22°07' E 114°38'1 2.5
2017-Nov-19 04:30N 22°08' E 114°39'1 2.5
2017-Nov-19 04:00N 22°09' E 114°40'1 2.7
2017-Nov-19 03:30N 22°10' E 114°41'1 2.6
2017-Nov-19 03:00N 22°10' E 114°42'1 2.7
2017-Nov-19 02:30N 22°11' E 114°43'2 3.8
2017-Nov-19 02:00N 22°11' E 114°46'612.6
2017-Nov-19 01:30N 22°13' E 114°52'612.6
2017-Nov-19 01:00N 22°12' E 114°59'612.7
2017-Nov-19 00:30N 22°12' E 115°06'713.1
2017-Nov-19 00:00N 22°12' E 115°13'1212.2
2017-Nov-18 23:00N 22°13' E 115°26'24514.2
2017-Nov-18 05:47N 22°26' E 119°50'518.0
2017-Nov-18 05:30N 22°28' E 119°56'918.1
2017-Nov-18 04:59N 22°31' E 120°05'817.6
2017-Nov-18 04:30N 22°33' E 120°14'5 0.8
2017-Nov-17 22:53N 22°33' E 120°19'3 7.3
2017-Nov-17 22:30N 22°33' E 120°16'4 7.4
2017-Nov-17 22:00N 22°32' E 120°12'613.0
2017-Nov-17 21:30N 22°37' E 120°08'815.9
2017-Nov-17 21:00N 22°43' E 120°02'815.6
2017-Nov-17 20:30N 22°50' E 119°59'816.1
2017-Nov-17 20:00N 22°58' E 119°56'  
2017-Nov-13 01:55N 35°36' E 139°47'0 0.1
2017-Nov-13 01:25N 35°36' E 139°47'0 0.1
2017-Nov-13 00:55N 35°36' E 139°47'0 0.1
2017-Nov-13 00:25N 35°36' E 139°47'0 0.0
2017-Nov-12 23:55N 35°36' E 139°47'0 0.0
2017-Nov-12 22:43N 35°36' E 139°47'1 2.5
2017-Nov-12 22:30N 35°36' E 139°47'4 7.8
2017-Nov-12 22:00N 35°33' E 139°51'5 9.2
2017-Nov-12 21:30N 35°28' E 139°51'612.6
2017-Nov-12 21:01N 35°25' E 139°45'3 6.7
2017-Nov-12 20:30N 35°24' E 139°41'0 0.1
2017-Nov-12 20:01N 35°24' E 139°41'0 0.0
2017-Nov-12 19:31N 35°24' E 139°41'0 0.0
2017-Nov-12 18:55N 35°24' E 139°41'0 0.0
2017-Nov-12 18:28N 35°24' E 139°41'0 0.0
2017-Nov-12 17:58N 35°24' E 139°41'0 0.0
2017-Nov-12 17:28N 35°24' E 139°41'0 0.0
2017-Nov-12 17:01N 35°24' E 139°41'0 0.0
2017-Nov-12 16:31N 35°24' E 139°41'0 0.1
2017-Nov-12 15:59N 35°24' E 139°41'3 6.3
2017-Nov-12 15:30N 35°22' E 139°43'612.0
2017-Nov-12 15:00N 35°16' E 139°46'611.7
2017-Nov-12 14:30N 35°10' E 139°46'5 9.5
2017-Nov-12 14:00N 35°06' E 139°44'5 9.5
2017-Nov-12 13:30N 35°03' E 139°39'5 9.5
2017-Nov-12 13:00N 35°00' E 139°35'5 9.6
2017-Nov-12 12:30N 34°57' E 139°30'5 9.9
2017-Nov-12 12:00N 34°54' E 139°25'227 5.8
2017-Nov-10 21:02N 33°55' E 134°60'119.3
2017-Nov-10 21:00N 33°56' E 134°60'919.1
2017-Nov-10 20:30N 34°05' E 134°60'917.2
2017-Nov-10 20:00N 34°14' E 134°58'612.1
2017-Nov-10 19:30N 34°20' E 134°59'816.7
2017-Nov-10 19:00N 34°26' E 135°06'917.4
2017-Nov-10 18:30N 34°32' E 135°13'714.2
2017-Nov-10 18:00N 34°39' E 135°16'2 3.4
2017-Nov-10 17:30N 34°40' E 135°14'0 0.0
2017-Nov-10 16:56N 34°40' E 135°14'0 0.0
2017-Nov-10 16:08N 34°40' E 135°14'0 0.0
2017-Nov-10 15:50N 34°40' E 135°14'0 0.0
2017-Nov-10 15:26N 34°40' E 135°14'0 0.0
2017-Nov-10 14:50N 34°40' E 135°14'0 0.0
2017-Nov-10 14:20N 34°40' E 135°14'0 0.0
2017-Nov-10 13:56N 34°40' E 135°14'0 0.0
2017-Nov-10 13:20N 34°40' E 135°14'0 0.0
2017-Nov-10 12:56N 34°40' E 135°14'0 0.0
2017-Nov-10 12:26N 34°40' E 135°14'0 0.0
2017-Nov-10 11:56N 34°40' E 135°14'0 0.0
2017-Nov-10 11:20N 34°40' E 135°14'0 1.3
2017-Nov-10 11:00N 34°40' E 135°15'5 9.5
2017-Nov-10 10:30N 34°38' E 135°20'3 5.1
2017-Nov-10 09:54N 34°39' E 135°24'0 0.0
2017-Nov-10 09:30N 34°39' E 135°24'0 0.0
2017-Nov-10 09:00N 34°39' E 135°24'0 0.0
2017-Nov-10 08:30N 34°39' E 135°24'0 0.0
2017-Nov-10 08:00N 34°39' E 135°24'0 0.0
2017-Nov-10 07:30N 34°39' E 135°24'0 0.0
2017-Nov-10 07:00N 34°39' E 135°24'0 0.0
2017-Nov-10 06:30N 34°39' E 135°24'0 0.0
2017-Nov-10 06:00N 34°39' E 135°24'0 0.0
2017-Nov-10 05:30N 34°39' E 135°24'0 0.0
2017-Nov-10 04:48N 34°39' E 135°24'0 0.0
2017-Nov-10 04:24N 34°39' E 135°24'0 0.0
2017-Nov-10 04:00N 34°39' E 135°24'0 0.0
2017-Nov-10 03:30N 34°39' E 135°24'0 0.0
2017-Nov-10 03:00N 34°39' E 135°24'0 0.0
2017-Nov-10 02:30N 34°39' E 135°24'0 0.0
2017-Nov-10 01:42N 34°39' E 135°24'0 0.3
2017-Nov-10 01:18N 34°39' E 135°24'2 5.1
2017-Nov-10 01:00N 34°38' E 135°23'611.9
2017-Nov-10 00:31N 34°34' E 135°17'  

Dump ship's entire track history